sensor_id;sensor_type;location;lat;lon;timestamp;P1;durP1;ratioP1;P2;durP2;ratioP2
7181;SDS011;3632;42.724;23.298;2023-05-25T00:00:08;10.33;;;7.37;;
7181;SDS011;3632;42.724;23.298;2023-05-25T00:02:36;9.40;;;7.60;;
7181;SDS011;3632;42.724;23.298;2023-05-25T00:05:04;7.43;;;6.73;;
7181;SDS011;3632;42.724;23.298;2023-05-25T00:07:31;10.23;;;7.33;;
7181;SDS011;3632;42.724;23.298;2023-05-25T00:09:58;8.03;;;7.23;;
7181;SDS011;3632;42.724;23.298;2023-05-25T00:12:24;8.23;;;7.43;;
7181;SDS011;3632;42.724;23.298;2023-05-25T00:14:51;8.17;;;7.37;;
7181;SDS011;3632;42.724;23.298;2023-05-25T00:17:19;10.60;;;7.00;;
7181;SDS011;3632;42.724;23.298;2023-05-25T00:19:46;9.17;;;7.20;;
7181;SDS011;3632;42.724;23.298;2023-05-25T00:22:13;9.57;;;6.90;;
7181;SDS011;3632;42.724;23.298;2023-05-25T00:24:39;8.53;;;7.30;;
7181;SDS011;3632;42.724;23.298;2023-05-25T00:27:06;8.13;;;7.37;;
7181;SDS011;3632;42.724;23.298;2023-05-25T00:29:33;8.17;;;7.13;;
7181;SDS011;3632;42.724;23.298;2023-05-25T00:32:00;8.30;;;6.57;;
7181;SDS011;3632;42.724;23.298;2023-05-25T00:34:28;14.50;;;7.43;;
7181;SDS011;3632;42.724;23.298;2023-05-25T00:36:55;7.20;;;6.50;;
7181;SDS011;3632;42.724;23.298;2023-05-25T00:39:22;8.27;;;6.80;;
7181;SDS011;3632;42.724;23.298;2023-05-25T00:41:48;7.53;;;6.73;;
7181;SDS011;3632;42.724;23.298;2023-05-25T00:44:15;9.57;;;6.67;;
7181;SDS011;3632;42.724;23.298;2023-05-25T00:46:46;10.40;;;6.97;;
7181;SDS011;3632;42.724;23.298;2023-05-25T00:49:14;8.50;;;7.13;;
7181;SDS011;3632;42.724;23.298;2023-05-25T00:51:43;8.30;;;7.30;;
7181;SDS011;3632;42.724;23.298;2023-05-25T00:54:11;10.90;;;7.53;;
7181;SDS011;3632;42.724;23.298;2023-05-25T00:56:41;9.67;;;7.07;;
7181;SDS011;3632;42.724;23.298;2023-05-25T00:59:13;10.23;;;7.57;;
7181;SDS011;3632;42.724;23.298;2023-05-25T01:01:42;8.70;;;7.67;;
7181;SDS011;3632;42.724;23.298;2023-05-25T01:04:12;8.67;;;7.70;;
7181;SDS011;3632;42.724;23.298;2023-05-25T01:06:41;9.27;;;7.73;;
7181;SDS011;3632;42.724;23.298;2023-05-25T01:09:14;8.87;;;7.80;;
7181;SDS011;3632;42.724;23.298;2023-05-25T01:11:43;8.53;;;7.60;;
7181;SDS011;3632;42.724;23.298;2023-05-25T01:14:14;9.33;;;7.50;;
7181;SDS011;3632;42.724;23.298;2023-05-25T01:16:45;8.87;;;7.53;;
7181;SDS011;3632;42.724;23.298;2023-05-25T01:19:13;8.73;;;7.83;;
7181;SDS011;3632;42.724;23.298;2023-05-25T01:21:41;7.73;;;6.97;;
7181;SDS011;3632;42.724;23.298;2023-05-25T01:24:13;8.17;;;7.33;;
7181;SDS011;3632;42.724;23.298;2023-05-25T01:26:47;9.37;;;7.10;;
7181;SDS011;3632;42.724;23.298;2023-05-25T01:29:19;9.00;;;7.50;;
7181;SDS011;3632;42.724;23.298;2023-05-25T01:31:48;10.57;;;7.50;;
7181;SDS011;3632;42.724;23.298;2023-05-25T01:34:17;8.20;;;7.03;;
7181;SDS011;3632;42.724;23.298;2023-05-25T01:36:47;9.40;;;7.17;;
7181;SDS011;3632;42.724;23.298;2023-05-25T01:39:14;9.67;;;7.20;;
7181;SDS011;3632;42.724;23.298;2023-05-25T01:41:41;10.57;;;7.43;;
7181;SDS011;3632;42.724;23.298;2023-05-25T01:44:07;10.60;;;7.83;;
7181;SDS011;3632;42.724;23.298;2023-05-25T01:46:35;7.67;;;6.93;;
7181;SDS011;3632;42.724;23.298;2023-05-25T01:49:07;8.73;;;7.47;;
7181;SDS011;3632;42.724;23.298;2023-05-25T01:51:43;8.73;;;7.10;;
7181;SDS011;3632;42.724;23.298;2023-05-25T01:54:21;7.83;;;7.03;;
7181;SDS011;3632;42.724;23.298;2023-05-25T01:56:54;10.97;;;7.50;;
7181;SDS011;3632;42.724;23.298;2023-05-25T01:59:25;8.47;;;7.13;;
7181;SDS011;3632;42.724;23.298;2023-05-25T02:01:53;10.40;;;7.27;;
7181;SDS011;3632;42.724;23.298;2023-05-25T02:04:20;10.53;;;7.10;;
7181;SDS011;3632;42.724;23.298;2023-05-25T02:06:48;10.80;;;7.90;;
7181;SDS011;3632;42.724;23.298;2023-05-25T02:09:17;9.70;;;7.33;;
7181;SDS011;3632;42.724;23.298;2023-05-25T02:11:44;10.43;;;7.77;;
7181;SDS011;3632;42.724;23.298;2023-05-25T02:14:11;10.23;;;7.73;;
7181;SDS011;3632;42.724;23.298;2023-05-25T02:16:38;8.17;;;7.30;;
7181;SDS011;3632;42.724;23.298;2023-05-25T02:19:04;9.80;;;7.50;;
7181;SDS011;3632;42.724;23.298;2023-05-25T02:21:31;8.87;;;7.97;;
7181;SDS011;3632;42.724;23.298;2023-05-25T02:24:01;8.80;;;7.90;;
7181;SDS011;3632;42.724;23.298;2023-05-25T02:26:28;8.67;;;7.73;;
7181;SDS011;3632;42.724;23.298;2023-05-25T02:28:55;11.77;;;8.07;;
7181;SDS011;3632;42.724;23.298;2023-05-25T02:31:22;9.93;;;7.67;;
7181;SDS011;3632;42.724;23.298;2023-05-25T02:33:48;9.00;;;8.10;;
7181;SDS011;3632;42.724;23.298;2023-05-25T02:36:15;15.90;;;9.00;;
7181;SDS011;3632;42.724;23.298;2023-05-25T02:38:42;13.17;;;9.33;;
7181;SDS011;3632;42.724;23.298;2023-05-25T02:41:10;11.83;;;9.80;;
7181;SDS011;3632;42.724;23.298;2023-05-25T02:43:37;11.80;;;10.10;;
7181;SDS011;3632;42.724;23.298;2023-05-25T02:46:03;14.47;;;10.40;;
7181;SDS011;3632;42.724;23.298;2023-05-25T02:48:30;16.57;;;10.87;;
7181;SDS011;3632;42.724;23.298;2023-05-25T02:50:57;16.73;;;9.40;;
7181;SDS011;3632;42.724;23.298;2023-05-25T02:53:24;11.03;;;9.93;;
7181;SDS011;3632;42.724;23.298;2023-05-25T02:55:50;10.43;;;9.33;;
7181;SDS011;3632;42.724;23.298;2023-05-25T02:58:19;11.47;;;9.50;;
7181;SDS011;3632;42.724;23.298;2023-05-25T03:00:46;10.60;;;9.50;;
7181;SDS011;3632;42.724;23.298;2023-05-25T03:03:13;10.77;;;9.30;;
7181;SDS011;3632;42.724;23.298;2023-05-25T03:05:39;12.70;;;8.93;;
7181;SDS011;3632;42.724;23.298;2023-05-25T03:08:06;11.50;;;9.30;;
7181;SDS011;3632;42.724;23.298;2023-05-25T03:10:33;10.07;;;8.50;;
7181;SDS011;3632;42.724;23.298;2023-05-25T03:13:00;12.30;;;9.30;;
7181;SDS011;3632;42.724;23.298;2023-05-25T03:15:28;20.67;;;14.63;;
7181;SDS011;3632;42.724;23.298;2023-05-25T03:17:55;11.70;;;10.57;;
7181;SDS011;3632;42.724;23.298;2023-05-25T03:20:25;12.80;;;8.97;;
7181;SDS011;3632;42.724;23.298;2023-05-25T03:22:51;12.10;;;9.53;;
7181;SDS011;3632;42.724;23.298;2023-05-25T03:25:18;12.13;;;9.53;;
7181;SDS011;3632;42.724;23.298;2023-05-25T03:27:45;9.83;;;8.67;;
7181;SDS011;3632;42.724;23.298;2023-05-25T03:30:12;12.30;;;8.40;;
7181;SDS011;3632;42.724;23.298;2023-05-25T03:32:40;11.17;;;8.93;;
7181;SDS011;3632;42.724;23.298;2023-05-25T03:35:07;17.67;;;14.20;;
7181;SDS011;3632;42.724;23.298;2023-05-25T03:37:34;15.33;;;11.00;;
7181;SDS011;3632;42.724;23.298;2023-05-25T03:40:01;12.97;;;9.57;;
7181;SDS011;3632;42.724;23.298;2023-05-25T03:42:28;12.80;;;10.03;;
7181;SDS011;3632;42.724;23.298;2023-05-25T03:44:55;14.23;;;8.97;;
7181;SDS011;3632;42.724;23.298;2023-05-25T03:47:22;14.43;;;9.37;;
7181;SDS011;3632;42.724;23.298;2023-05-25T03:49:50;12.03;;;9.13;;
7181;SDS011;3632;42.724;23.298;2023-05-25T03:52:16;12.33;;;9.20;;
7181;SDS011;3632;42.724;23.298;2023-05-25T03:54:43;10.20;;;8.70;;
7181;SDS011;3632;42.724;23.298;2023-05-25T03:57:10;11.37;;;8.87;;
7181;SDS011;3632;42.724;23.298;2023-05-25T03:59:37;13.40;;;8.97;;
7181;SDS011;3632;42.724;23.298;2023-05-25T04:02:03;12.93;;;9.13;;
7181;SDS011;3632;42.724;23.298;2023-05-25T04:04:30;11.77;;;9.40;;
7181;SDS011;3632;42.724;23.298;2023-05-25T04:06:58;15.80;;;9.87;;
7181;SDS011;3632;42.724;23.298;2023-05-25T04:09:25;14.67;;;9.80;;
7181;SDS011;3632;42.724;23.298;2023-05-25T04:11:52;15.60;;;9.73;;
7181;SDS011;3632;42.724;23.298;2023-05-25T04:14:19;13.97;;;9.67;;
7181;SDS011;3632;42.724;23.298;2023-05-25T04:16:45;13.80;;;9.30;;
7181;SDS011;3632;42.724;23.298;2023-05-25T04:19:12;13.43;;;9.93;;
7181;SDS011;3632;42.724;23.298;2023-05-25T04:21:39;14.10;;;9.57;;
7181;SDS011;3632;42.724;23.298;2023-05-25T04:24:07;15.27;;;9.77;;
7181;SDS011;3632;42.724;23.298;2023-05-25T04:26:34;14.63;;;10.10;;
7181;SDS011;3632;42.724;23.298;2023-05-25T04:29:03;18.97;;;9.00;;
7181;SDS011;3632;42.724;23.298;2023-05-25T04:31:31;13.53;;;9.07;;
7181;SDS011;3632;42.724;23.298;2023-05-25T04:33:57;11.33;;;9.13;;
7181;SDS011;3632;42.724;23.298;2023-05-25T04:36:26;10.13;;;8.07;;
7181;SDS011;3632;42.724;23.298;2023-05-25T04:38:53;12.10;;;7.97;;
7181;SDS011;3632;42.724;23.298;2023-05-25T04:41:21;9.13;;;6.50;;
7181;SDS011;3632;42.724;23.298;2023-05-25T04:43:50;7.83;;;6.57;;
7181;SDS011;3632;42.724;23.298;2023-05-25T04:46:18;9.60;;;6.90;;
7181;SDS011;3632;42.724;23.298;2023-05-25T04:48:44;10.07;;;7.33;;
7181;SDS011;3632;42.724;23.298;2023-05-25T04:51:11;9.67;;;7.17;;
7181;SDS011;3632;42.724;23.298;2023-05-25T04:53:38;9.90;;;6.80;;
7181;SDS011;3632;42.724;23.298;2023-05-25T04:56:05;8.30;;;6.37;;
7181;SDS011;3632;42.724;23.298;2023-05-25T04:58:33;10.23;;;6.63;;
7181;SDS011;3632;42.724;23.298;2023-05-25T05:01:00;11.27;;;7.60;;
7181;SDS011;3632;42.724;23.298;2023-05-25T05:03:27;10.63;;;7.63;;
7181;SDS011;3632;42.724;23.298;2023-05-25T05:05:54;13.93;;;8.03;;
7181;SDS011;3632;42.724;23.298;2023-05-25T05:08:21;14.13;;;8.23;;
7181;SDS011;3632;42.724;23.298;2023-05-25T05:10:47;11.03;;;7.60;;
7181;SDS011;3632;42.724;23.298;2023-05-25T05:13:14;13.03;;;7.67;;
7181;SDS011;3632;42.724;23.298;2023-05-25T05:15:42;10.00;;;6.93;;
7181;SDS011;3632;42.724;23.298;2023-05-25T05:18:09;8.70;;;7.40;;
7181;SDS011;3632;42.724;23.298;2023-05-25T05:20:38;11.57;;;7.63;;
7181;SDS011;3632;42.724;23.298;2023-05-25T05:23:05;8.87;;;7.23;;
7181;SDS011;3632;42.724;23.298;2023-05-25T05:25:32;9.90;;;7.53;;
7181;SDS011;3632;42.724;23.298;2023-05-25T05:27:58;11.10;;;7.77;;
7181;SDS011;3632;42.724;23.298;2023-05-25T05:30:25;10.57;;;7.30;;
7181;SDS011;3632;42.724;23.298;2023-05-25T05:32:53;10.27;;;7.93;;
7181;SDS011;3632;42.724;23.298;2023-05-25T05:35:20;8.87;;;7.43;;
7181;SDS011;3632;42.724;23.298;2023-05-25T05:37:47;12.87;;;7.83;;
7181;SDS011;3632;42.724;23.298;2023-05-25T05:40:14;11.03;;;7.33;;
7181;SDS011;3632;42.724;23.298;2023-05-25T05:42:41;10.20;;;7.33;;
7181;SDS011;3632;42.724;23.298;2023-05-25T05:45:08;7.30;;;6.53;;
7181;SDS011;3632;42.724;23.298;2023-05-25T05:47:35;7.10;;;6.40;;
7181;SDS011;3632;42.724;23.298;2023-05-25T05:50:03;8.70;;;7.17;;
7181;SDS011;3632;42.724;23.298;2023-05-25T05:52:31;10.60;;;7.80;;
7181;SDS011;3632;42.724;23.298;2023-05-25T05:54:58;15.33;;;7.53;;
7181;SDS011;3632;42.724;23.298;2023-05-25T05:57:24;8.90;;;6.63;;
7181;SDS011;3632;42.724;23.298;2023-05-25T05:59:52;12.23;;;7.77;;
7181;SDS011;3632;42.724;23.298;2023-05-25T06:02:19;7.40;;;6.63;;
7181;SDS011;3632;42.724;23.298;2023-05-25T06:04:46;11.23;;;7.53;;
7181;SDS011;3632;42.724;23.298;2023-05-25T06:07:14;8.63;;;6.73;;
7181;SDS011;3632;42.724;23.298;2023-05-25T06:09:40;9.97;;;7.17;;
7181;SDS011;3632;42.724;23.298;2023-05-25T06:12:07;10.97;;;7.67;;
7181;SDS011;3632;42.724;23.298;2023-05-25T06:14:34;10.27;;;6.90;;
7181;SDS011;3632;42.724;23.298;2023-05-25T06:17:01;7.37;;;6.33;;
7181;SDS011;3632;42.724;23.298;2023-05-25T06:19:28;9.13;;;7.07;;
7181;SDS011;3632;42.724;23.298;2023-05-25T06:21:55;14.20;;;10.77;;
7181;SDS011;3632;42.724;23.298;2023-05-25T06:24:23;13.47;;;8.23;;
7181;SDS011;3632;42.724;23.298;2023-05-25T06:26:49;12.73;;;7.53;;
7181;SDS011;3632;42.724;23.298;2023-05-25T06:29:16;13.03;;;8.80;;
7181;SDS011;3632;42.724;23.298;2023-05-25T06:31:43;11.93;;;7.77;;
7181;SDS011;3632;42.724;23.298;2023-05-25T06:34:09;9.60;;;6.83;;
7181;SDS011;3632;42.724;23.298;2023-05-25T06:36:36;9.47;;;6.53;;
7181;SDS011;3632;42.724;23.298;2023-05-25T06:39:03;9.10;;;6.90;;
7181;SDS011;3632;42.724;23.298;2023-05-25T06:41:31;9.97;;;7.13;;
7181;SDS011;3632;42.724;23.298;2023-05-25T06:43:58;10.63;;;7.10;;
7181;SDS011;3632;42.724;23.298;2023-05-25T06:46:24;9.33;;;6.47;;
7181;SDS011;3632;42.724;23.298;2023-05-25T06:48:51;11.53;;;7.43;;
7181;SDS011;3632;42.724;23.298;2023-05-25T06:51:18;8.47;;;7.67;;
7181;SDS011;3632;42.724;23.298;2023-05-25T06:53:45;10.83;;;6.80;;
7181;SDS011;3632;42.724;23.298;2023-05-25T06:56:11;10.93;;;6.77;;
7181;SDS011;3632;42.724;23.298;2023-05-25T06:58:39;7.57;;;6.87;;
7181;SDS011;3632;42.724;23.298;2023-05-25T07:01:06;8.50;;;6.70;;
7181;SDS011;3632;42.724;23.298;2023-05-25T07:03:33;7.67;;;6.80;;
7181;SDS011;3632;42.724;23.298;2023-05-25T07:06:00;10.53;;;6.90;;
7181;SDS011;3632;42.724;23.298;2023-05-25T07:08:27;8.33;;;7.40;;
7181;SDS011;3632;42.724;23.298;2023-05-25T07:10:53;9.03;;;6.80;;
7181;SDS011;3632;42.724;23.298;2023-05-25T07:13:20;8.17;;;6.33;;
7181;SDS011;3632;42.724;23.298;2023-05-25T07:15:48;6.53;;;5.83;;
7181;SDS011;3632;42.724;23.298;2023-05-25T07:18:16;7.00;;;5.67;;
7181;SDS011;3632;42.724;23.298;2023-05-25T07:20:43;8.60;;;5.80;;
7181;SDS011;3632;42.724;23.298;2023-05-25T07:23:10;7.50;;;5.40;;
7181;SDS011;3632;42.724;23.298;2023-05-25T07:25:37;5.50;;;4.97;;
7181;SDS011;3632;42.724;23.298;2023-05-25T07:28:04;6.13;;;5.07;;
7181;SDS011;3632;42.724;23.298;2023-05-25T07:30:31;5.23;;;4.73;;
7181;SDS011;3632;42.724;23.298;2023-05-25T07:32:59;5.60;;;5.10;;
7181;SDS011;3632;42.724;23.298;2023-05-25T07:35:26;6.90;;;4.37;;
7181;SDS011;3632;42.724;23.298;2023-05-25T07:37:56;5.57;;;4.20;;
7181;SDS011;3632;42.724;23.298;2023-05-25T07:40:23;4.43;;;4.00;;
7181;SDS011;3632;42.724;23.298;2023-05-25T07:42:50;5.77;;;4.10;;
7181;SDS011;3632;42.724;23.298;2023-05-25T07:45:16;3.70;;;3.40;;
7181;SDS011;3632;42.724;23.298;2023-05-25T07:47:43;3.97;;;3.30;;
7181;SDS011;3632;42.724;23.298;2023-05-25T07:50:11;7.03;;;5.63;;
7181;SDS011;3632;42.724;23.298;2023-05-25T07:52:38;8.67;;;6.13;;
7181;SDS011;3632;42.724;23.298;2023-05-25T07:55:05;5.27;;;4.60;;
7181;SDS011;3632;42.724;23.298;2023-05-25T07:57:41;10.27;;;5.40;;
7181;SDS011;3632;42.724;23.298;2023-05-25T08:00:09;4.93;;;3.97;;
7181;SDS011;3632;42.724;23.298;2023-05-25T08:02:36;16.53;;;14.67;;
7181;SDS011;3632;42.724;23.298;2023-05-25T08:05:03;7.47;;;6.33;;
7181;SDS011;3632;42.724;23.298;2023-05-25T08:07:32;12.27;;;9.97;;
7181;SDS011;3632;42.724;23.298;2023-05-25T08:09:59;7.27;;;6.57;;
7181;SDS011;3632;42.724;23.298;2023-05-25T08:12:26;8.73;;;6.17;;
7181;SDS011;3632;42.724;23.298;2023-05-25T08:14:54;6.87;;;4.80;;
7181;SDS011;3632;42.724;23.298;2023-05-25T08:17:21;6.20;;;4.70;;
7181;SDS011;3632;42.724;23.298;2023-05-25T08:19:48;8.00;;;6.60;;
7181;SDS011;3632;42.724;23.298;2023-05-25T08:22:15;8.50;;;4.60;;
7181;SDS011;3632;42.724;23.298;2023-05-25T08:24:43;6.97;;;5.03;;
7181;SDS011;3632;42.724;23.298;2023-05-25T08:27:09;11.60;;;6.87;;
7181;SDS011;3632;42.724;23.298;2023-05-25T08:29:36;12.73;;;7.43;;
7181;SDS011;3632;42.724;23.298;2023-05-25T08:32:03;9.83;;;6.07;;
7181;SDS011;3632;42.724;23.298;2023-05-25T08:34:30;18.00;;;10.77;;
7181;SDS011;3632;42.724;23.298;2023-05-25T08:36:57;23.27;;;10.77;;
7181;SDS011;3632;42.724;23.298;2023-05-25T08:39:23;14.73;;;7.13;;
7181;SDS011;3632;42.724;23.298;2023-05-25T08:41:52;9.60;;;6.47;;
7181;SDS011;3632;42.724;23.298;2023-05-25T08:44:19;17.47;;;7.53;;
7181;SDS011;3632;42.724;23.298;2023-05-25T08:46:46;16.87;;;7.03;;
7181;SDS011;3632;42.724;23.298;2023-05-25T08:49:14;17.00;;;6.80;;
7181;SDS011;3632;42.724;23.298;2023-05-25T08:51:41;12.03;;;7.03;;
7181;SDS011;3632;42.724;23.298;2023-05-25T08:54:12;8.37;;;6.10;;
7181;SDS011;3632;42.724;23.298;2023-05-25T08:56:44;6.77;;;5.43;;
7181;SDS011;3632;42.724;23.298;2023-05-25T08:59:21;5.77;;;5.17;;
7181;SDS011;3632;42.724;23.298;2023-05-25T09:01:57;5.73;;;5.07;;
7181;SDS011;3632;42.724;23.298;2023-05-25T09:04:31;5.47;;;4.57;;
7181;SDS011;3632;42.724;23.298;2023-05-25T09:06:59;5.57;;;4.60;;
7181;SDS011;3632;42.724;23.298;2023-05-25T09:09:26;4.70;;;4.10;;
7181;SDS011;3632;42.724;23.298;2023-05-25T09:11:54;6.90;;;4.60;;
7181;SDS011;3632;42.724;23.298;2023-05-25T09:14:24;8.40;;;4.90;;
7181;SDS011;3632;42.724;23.298;2023-05-25T09:16:51;6.27;;;5.00;;
7181;SDS011;3632;42.724;23.298;2023-05-25T09:19:18;14.27;;;11.53;;
7181;SDS011;3632;42.724;23.298;2023-05-25T09:21:45;20.83;;;15.47;;
7181;SDS011;3632;42.724;23.298;2023-05-25T09:24:12;18.80;;;15.83;;
7181;SDS011;3632;42.724;23.298;2023-05-25T09:26:39;13.53;;;9.87;;
7181;SDS011;3632;42.724;23.298;2023-05-25T09:29:08;13.70;;;9.70;;
7181;SDS011;3632;42.724;23.298;2023-05-25T09:31:39;14.97;;;9.93;;
7181;SDS011;3632;42.724;23.298;2023-05-25T09:34:09;8.77;;;6.67;;
7181;SDS011;3632;42.724;23.298;2023-05-25T09:36:37;9.43;;;6.93;;
7181;SDS011;3632;42.724;23.298;2023-05-25T09:39:06;7.37;;;6.20;;
7181;SDS011;3632;42.724;23.298;2023-05-25T09:44:19;9.60;;;7.17;;
7181;SDS011;3632;42.724;23.298;2023-05-25T09:46:46;10.27;;;6.57;;
7181;SDS011;3632;42.724;23.298;2023-05-25T09:49:13;8.13;;;7.07;;
7181;SDS011;3632;42.724;23.298;2023-05-25T09:51:40;8.43;;;6.00;;
7181;SDS011;3632;42.724;23.298;2023-05-25T09:54:08;7.17;;;6.30;;
7181;SDS011;3632;42.724;23.298;2023-05-25T09:56:35;12.20;;;10.20;;
7181;SDS011;3632;42.724;23.298;2023-05-25T09:59:02;10.50;;;7.30;;
7181;SDS011;3632;42.724;23.298;2023-05-25T10:01:31;7.63;;;6.80;;
7181;SDS011;3632;42.724;23.298;2023-05-25T10:04:00;8.33;;;6.57;;
7181;SDS011;3632;42.724;23.298;2023-05-25T10:06:27;8.17;;;7.37;;
7181;SDS011;3632;42.724;23.298;2023-05-25T10:08:56;9.40;;;7.80;;
7181;SDS011;3632;42.724;23.298;2023-05-25T10:11:23;9.20;;;6.87;;
7181;SDS011;3632;42.724;23.298;2023-05-25T10:13:51;9.87;;;6.50;;
7181;SDS011;3632;42.724;23.298;2023-05-25T10:16:21;7.00;;;6.30;;
7181;SDS011;3632;42.724;23.298;2023-05-25T10:18:55;7.17;;;6.17;;
7181;SDS011;3632;42.724;23.298;2023-05-25T10:21:29;8.77;;;6.60;;
7181;SDS011;3632;42.724;23.298;2023-05-25T10:23:58;7.93;;;6.70;;
7181;SDS011;3632;42.724;23.298;2023-05-25T10:26:30;8.07;;;5.93;;
7181;SDS011;3632;42.724;23.298;2023-05-25T10:29:01;7.43;;;5.77;;
7181;SDS011;3632;42.724;23.298;2023-05-25T10:31:29;7.40;;;6.03;;
7181;SDS011;3632;42.724;23.298;2023-05-25T10:33:59;7.70;;;6.20;;
7181;SDS011;3632;42.724;23.298;2023-05-25T10:36:27;10.63;;;6.57;;
7181;SDS011;3632;42.724;23.298;2023-05-25T10:38:54;10.07;;;7.40;;
7181;SDS011;3632;42.724;23.298;2023-05-25T10:41:22;8.83;;;7.93;;
7181;SDS011;3632;42.724;23.298;2023-05-25T10:43:50;8.27;;;6.97;;
7181;SDS011;3632;42.724;23.298;2023-05-25T10:46:19;6.30;;;5.70;;
7181;SDS011;3632;42.724;23.298;2023-05-25T10:48:47;6.80;;;5.60;;
7181;SDS011;3632;42.724;23.298;2023-05-25T10:51:19;6.73;;;6.03;;
7181;SDS011;3632;42.724;23.298;2023-05-25T10:53:46;8.30;;;7.47;;
7181;SDS011;3632;42.724;23.298;2023-05-25T10:56:23;10.43;;;7.63;;
7181;SDS011;3632;42.724;23.298;2023-05-25T10:58:50;13.70;;;12.30;;
7181;SDS011;3632;42.724;23.298;2023-05-25T11:01:18;12.00;;;8.97;;
7181;SDS011;3632;42.724;23.298;2023-05-25T11:03:54;9.27;;;8.03;;
7181;SDS011;3632;42.724;23.298;2023-05-25T11:09:28;7.67;;;6.70;;
7181;SDS011;3632;42.724;23.298;2023-05-25T11:12:02;7.50;;;6.80;;
7181;SDS011;3632;42.724;23.298;2023-05-25T11:14:31;9.83;;;7.40;;
7181;SDS011;3632;42.724;23.298;2023-05-25T11:17:05;10.97;;;7.77;;
7181;SDS011;3632;42.724;23.298;2023-05-25T11:19:37;13.80;;;11.60;;
7181;SDS011;3632;42.724;23.298;2023-05-25T11:22:13;10.63;;;7.37;;
7181;SDS011;3632;42.724;23.298;2023-05-25T11:24:41;10.60;;;8.77;;
7181;SDS011;3632;42.724;23.298;2023-05-25T11:27:09;10.43;;;7.93;;
7181;SDS011;3632;42.724;23.298;2023-05-25T11:29:37;8.80;;;6.97;;
7181;SDS011;3632;42.724;23.298;2023-05-25T11:32:10;7.00;;;6.17;;
7181;SDS011;3632;42.724;23.298;2023-05-25T11:34:39;7.30;;;5.50;;
7181;SDS011;3632;42.724;23.298;2023-05-25T11:37:11;9.83;;;8.30;;
7181;SDS011;3632;42.724;23.298;2023-05-25T11:39:41;8.00;;;7.17;;
7181;SDS011;3632;42.724;23.298;2023-05-25T11:42:12;6.37;;;5.57;;
7181;SDS011;3632;42.724;23.298;2023-05-25T11:44:40;9.70;;;7.47;;
7181;SDS011;3632;42.724;23.298;2023-05-25T11:47:08;5.63;;;5.03;;
7181;SDS011;3632;42.724;23.298;2023-05-25T11:49:38;6.93;;;5.83;;
7181;SDS011;3632;42.724;23.298;2023-05-25T11:52:09;5.43;;;4.93;;
7181;SDS011;3632;42.724;23.298;2023-05-25T11:54:37;7.33;;;4.90;;
7181;SDS011;3632;42.724;23.298;2023-05-25T11:57:12;8.37;;;4.83;;
7181;SDS011;3632;42.724;23.298;2023-05-25T11:59:40;7.30;;;3.90;;
7181;SDS011;3632;42.724;23.298;2023-05-25T12:02:13;7.37;;;3.93;;
7181;SDS011;3632;42.724;23.298;2023-05-25T12:04:39;6.33;;;3.73;;
7181;SDS011;3632;42.724;23.298;2023-05-25T12:07:07;4.57;;;3.37;;
7181;SDS011;3632;42.724;23.298;2023-05-25T12:09:34;3.00;;;2.60;;
7181;SDS011;3632;42.724;23.298;2023-05-25T12:12:03;7.70;;;3.00;;
7181;SDS011;3632;42.724;23.298;2023-05-25T12:14:30;3.07;;;2.53;;
7181;SDS011;3632;42.724;23.298;2023-05-25T12:17:00;3.03;;;2.73;;
7181;SDS011;3632;42.724;23.298;2023-05-25T12:19:27;2.93;;;2.40;;
7181;SDS011;3632;42.724;23.298;2023-05-25T12:21:54;4.60;;;2.30;;
7181;SDS011;3632;42.724;23.298;2023-05-25T12:24:20;3.07;;;2.10;;
7181;SDS011;3632;42.724;23.298;2023-05-25T12:26:48;4.07;;;2.20;;
7181;SDS011;3632;42.724;23.298;2023-05-25T12:29:17;3.13;;;2.23;;
7181;SDS011;3632;42.724;23.298;2023-05-25T12:31:43;2.50;;;2.30;;
7181;SDS011;3632;42.724;23.298;2023-05-25T12:34:11;2.47;;;2.27;;
7181;SDS011;3632;42.724;23.298;2023-05-25T12:36:43;3.53;;;2.10;;
7181;SDS011;3632;42.724;23.298;2023-05-25T12:39:12;3.03;;;2.00;;
7181;SDS011;3632;42.724;23.298;2023-05-25T12:41:42;2.23;;;2.00;;
7181;SDS011;3632;42.724;23.298;2023-05-25T12:44:20;7.93;;;3.27;;
7181;SDS011;3632;42.724;23.298;2023-05-25T12:46:50;3.77;;;2.57;;
7181;SDS011;3632;42.724;23.298;2023-05-25T12:49:21;3.50;;;2.30;;
7181;SDS011;3632;42.724;23.298;2023-05-25T12:51:53;2.33;;;2.00;;
7181;SDS011;3632;42.724;23.298;2023-05-25T12:54:35;4.93;;;2.57;;
7181;SDS011;3632;42.724;23.298;2023-05-25T12:57:05;4.57;;;2.40;;
7181;SDS011;3632;42.724;23.298;2023-05-25T12:59:34;9.50;;;2.27;;
7181;SDS011;3632;42.724;23.298;2023-05-25T13:02:02;11.60;;;2.03;;
7181;SDS011;3632;42.724;23.298;2023-05-25T13:04:30;5.43;;;2.20;;
7181;SDS011;3632;42.724;23.298;2023-05-25T13:06:57;5.17;;;3.70;;
7181;SDS011;3632;42.724;23.298;2023-05-25T13:09:24;4.93;;;2.83;;
7181;SDS011;3632;42.724;23.298;2023-05-25T13:11:52;4.40;;;4.00;;
7181;SDS011;3632;42.724;23.298;2023-05-25T13:14:19;6.03;;;3.13;;
7181;SDS011;3632;42.724;23.298;2023-05-25T13:16:48;6.63;;;3.00;;
7181;SDS011;3632;42.724;23.298;2023-05-25T13:19:15;2.50;;;2.30;;
7181;SDS011;3632;42.724;23.298;2023-05-25T13:21:42;5.17;;;2.30;;
7181;SDS011;3632;42.724;23.298;2023-05-25T13:24:09;6.90;;;2.30;;
7181;SDS011;3632;42.724;23.298;2023-05-25T13:26:36;3.87;;;2.33;;
7181;SDS011;3632;42.724;23.298;2023-05-25T13:29:03;5.90;;;2.30;;
7181;SDS011;3632;42.724;23.298;2023-05-25T13:31:30;5.00;;;2.40;;
7181;SDS011;3632;42.724;23.298;2023-05-25T13:33:58;5.57;;;2.57;;
7181;SDS011;3632;42.724;23.298;2023-05-25T13:36:25;3.30;;;2.20;;
7181;SDS011;3632;42.724;23.298;2023-05-25T13:38:52;3.77;;;2.40;;
7181;SDS011;3632;42.724;23.298;2023-05-25T13:41:19;4.63;;;2.60;;
7181;SDS011;3632;42.724;23.298;2023-05-25T13:43:45;4.97;;;2.93;;
7181;SDS011;3632;42.724;23.298;2023-05-25T13:46:12;5.10;;;2.43;;
7181;SDS011;3632;42.724;23.298;2023-05-25T13:48:39;10.27;;;3.90;;
7181;SDS011;3632;42.724;23.298;2023-05-25T13:51:12;6.67;;;4.93;;
7181;SDS011;3632;42.724;23.298;2023-05-25T13:53:40;4.53;;;3.07;;
7181;SDS011;3632;42.724;23.298;2023-05-25T13:56:07;7.10;;;5.67;;
7181;SDS011;3632;42.724;23.298;2023-05-25T13:58:34;2.80;;;2.20;;
7181;SDS011;3632;42.724;23.298;2023-05-25T14:01:01;15.93;;;3.23;;
7181;SDS011;3632;42.724;23.298;2023-05-25T14:03:28;11.47;;;3.43;;
7181;SDS011;3632;42.724;23.298;2023-05-25T14:05:55;17.13;;;3.90;;
7181;SDS011;3632;42.724;23.298;2023-05-25T14:08:23;2.70;;;2.30;;
7181;SDS011;3632;42.724;23.298;2023-05-25T14:10:50;47.97;;;7.13;;
7181;SDS011;3632;42.724;23.298;2023-05-25T14:13:17;28.40;;;5.00;;
7181;SDS011;3632;42.724;23.298;2023-05-25T14:15:44;24.33;;;5.23;;
7181;SDS011;3632;42.724;23.298;2023-05-25T14:18:11;26.07;;;4.60;;
7181;SDS011;3632;42.724;23.298;2023-05-25T14:20:37;4.03;;;2.33;;
7181;SDS011;3632;42.724;23.298;2023-05-25T14:23:06;8.07;;;4.13;;
7181;SDS011;3632;42.724;23.298;2023-05-25T14:25:41;14.07;;;7.03;;
7181;SDS011;3632;42.724;23.298;2023-05-25T14:28:08;3.53;;;2.30;;
7181;SDS011;3632;42.724;23.298;2023-05-25T14:30:35;5.27;;;2.73;;
7181;SDS011;3632;42.724;23.298;2023-05-25T14:33:01;9.40;;;2.80;;
7181;SDS011;3632;42.724;23.298;2023-05-25T14:35:28;9.13;;;4.03;;
7181;SDS011;3632;42.724;23.298;2023-05-25T14:37:55;2.47;;;2.27;;
7181;SDS011;3632;42.724;23.298;2023-05-25T14:40:22;8.73;;;3.33;;
7181;SDS011;3632;42.724;23.298;2023-05-25T14:42:50;9.30;;;3.13;;
7181;SDS011;3632;42.724;23.298;2023-05-25T14:45:19;7.17;;;2.93;;
7181;SDS011;3632;42.724;23.298;2023-05-25T14:47:46;5.88;;;2.90;;
7181;SDS011;3632;42.724;23.298;2023-05-25T14:50:13;6.43;;;2.70;;
7181;SDS011;3632;42.724;23.298;2023-05-25T14:52:39;5.40;;;2.70;;
7181;SDS011;3632;42.724;23.298;2023-05-25T14:55:07;4.43;;;2.73;;
7181;SDS011;3632;42.724;23.298;2023-05-25T14:57:34;3.22;;;2.30;;
7181;SDS011;3632;42.724;23.298;2023-05-25T15:00:03;8.10;;;2.90;;
7181;SDS011;3632;42.724;23.298;2023-05-25T15:02:30;4.28;;;2.55;;
7181;SDS011;3632;42.724;23.298;2023-05-25T15:04:56;3.67;;;2.33;;